createdAt,value
2018-12-16T00:02:02.295Z,100753.81
2018-12-16T00:04:29.967Z,100748.42
2018-12-16T00:06:57.331Z,100742.89
2018-12-16T00:09:24.708Z,100730.57
2018-12-16T00:11:52.491Z,100722.59
2018-12-16T00:14:20.480Z,100716.48
2018-12-16T00:16:48.371Z,100711.09
2018-12-16T00:19:15.989Z,100706.98
2018-12-16T00:21:43.617Z,100703.78
2018-12-16T00:24:11.186Z,100713.52
2018-12-16T00:26:50.182Z,100705.87
2018-12-16T00:29:17.761Z,100703.78
2018-12-16T00:31:45.387Z,100701.50
2018-12-16T00:34:12.991Z,100712.56
2018-12-16T00:36:40.557Z,100706.37
2018-12-16T00:39:08.248Z,100716.80
2018-12-16T00:41:36.106Z,100712.52
2018-12-16T00:44:04.079Z,100710.55
2018-12-16T00:46:31.689Z,100719.38
2018-12-16T00:48:59.135Z,100714.14
2018-12-16T00:51:26.751Z,100711.31
2018-12-16T00:53:54.107Z,100713.05
2018-12-16T00:56:21.692Z,100721.27
2018-12-16T00:58:49.383Z,100721.05
2018-12-16T01:01:16.821Z,100724.91
2018-12-16T01:03:44.772Z,100734.17
2018-12-16T01:06:12.421Z,100736.57
2018-12-16T01:08:40.085Z,100740.30
2018-12-16T01:11:07.790Z,100737.09
2018-12-16T01:13:35.381Z,100746.78
2018-12-16T01:16:03.153Z,100745.53
2018-12-16T01:18:30.933Z,100743.84
2018-12-16T01:20:58.288Z,100754.28
2018-12-16T01:23:26.019Z,100743.30
2018-12-16T01:25:53.714Z,100741.34
2018-12-16T01:28:21.391Z,100739.06
2018-12-16T01:30:48.772Z,100732.12
2018-12-16T01:33:16.836Z,100730.82
2018-12-16T01:35:44.324Z,100728.27
2018-12-16T01:38:12.000Z,100725.48
2018-12-16T01:40:39.576Z,100719.67
2018-12-16T01:43:07.141Z,100712.66
2018-12-16T01:45:34.467Z,100708.02
2018-12-16T01:48:02.092Z,100699.70
2018-12-16T01:50:29.496Z,100700.09
2018-12-16T01:52:57.080Z,100692.98
2018-12-16T01:55:24.664Z,100689.42
2018-12-16T01:57:52.228Z,100690.31
2018-12-16T02:00:20.076Z,100677.00
2018-12-16T02:02:48.012Z,100672.54
2018-12-16T02:05:15.624Z,100669.00
2018-12-16T02:07:43.435Z,100657.65
2018-12-16T02:10:11.270Z,100645.09
2018-12-16T02:12:38.620Z,100627.34
2018-12-16T02:15:06.504Z,100622.02
2018-12-16T02:17:33.892Z,100613.91
2018-12-16T02:20:01.457Z,100619.78
2018-12-16T02:22:28.778Z,100606.05
2018-12-16T02:24:56.576Z,100609.97
2018-12-16T02:27:24.112Z,100607.34
2018-12-16T02:29:51.792Z,100603.13
2018-12-16T02:32:19.482Z,100600.78
2018-12-16T02:34:47.268Z,100607.64
2018-12-16T02:37:14.737Z,100589.12
2018-12-16T02:39:42.459Z,100604.77
2018-12-16T02:42:10.116Z,100597.88
2018-12-16T02:44:37.700Z,100590.94
2018-12-16T02:47:05.462Z,100582.44
2018-12-16T02:49:33.088Z,100585.97
2018-12-16T02:52:00.841Z,100590.98
2018-12-16T02:54:28.449Z,100579.58
2018-12-16T02:56:56.009Z,100571.64
2018-12-16T02:59:24.880Z,100563.56
2018-12-16T03:01:52.650Z,100554.63
2018-12-16T03:04:19.947Z,100545.34
2018-12-16T03:06:47.580Z,100529.89
2018-12-16T03:09:15.444Z,100529.89
2018-12-16T03:11:43.163Z,100524.45
2018-12-16T03:14:10.773Z,100531.70
2018-12-16T03:16:39.665Z,100525.23
2018-12-16T03:19:07.233Z,100525.01
2018-12-16T03:21:34.948Z,100516.11
2018-12-16T03:24:02.751Z,100509.13
2018-12-16T03:26:35.875Z,100502.09
2018-12-16T03:29:00.413Z,100498.89
2018-12-16T03:31:28.115Z,100489.17
2018-12-16T03:33:55.713Z,100485.42
2018-12-16T03:36:23.189Z,100477.53
2018-12-16T03:38:50.925Z,100471.95
2018-12-16T03:41:18.559Z,100449.10
2018-12-16T03:43:46.091Z,100453.94
2018-12-16T03:46:13.652Z,100449.92
2018-12-16T03:48:41.313Z,100435.63
2018-12-16T03:51:08.610Z,100448.42
2018-12-16T03:53:36.087Z,100435.23
2018-12-16T03:56:03.846Z,100439.22
2018-12-16T03:58:31.302Z,100447.00
2018-12-16T04:00:58.941Z,100450.23
2018-12-16T04:03:26.613Z,100443.02
2018-12-16T04:05:54.024Z,100445.42
2018-12-16T04:08:21.666Z,100430.86
2018-12-16T04:10:49.099Z,100435.68
2018-12-16T04:13:16.647Z,100430.61
2018-12-16T04:15:44.210Z,100431.38
2018-12-16T04:18:11.783Z,100431.28
2018-12-16T04:20:39.247Z,100423.45
2018-12-16T04:23:06.858Z,100429.72
2018-12-16T04:25:34.312Z,100430.86
2018-12-16T04:28:01.753Z,100421.15
2018-12-16T04:30:29.336Z,100412.08
2018-12-16T04:32:56.831Z,100403.81
2018-12-16T04:35:24.548Z,100404.41
2018-12-16T04:37:51.994Z,100405.63
2018-12-16T04:40:19.645Z,100405.91
2018-12-16T04:42:47.377Z,100409.90
2018-12-16T04:45:15.096Z,100411.23
2018-12-16T04:50:09.218Z,100407.00
2018-12-16T04:52:36.913Z,100415.98
2018-12-16T04:55:05.021Z,100405.19
2018-12-16T04:57:32.567Z,100404.66
2018-12-16T05:00:00.271Z,100385.94
2018-12-16T05:02:27.958Z,100379.05
2018-12-16T05:04:55.596Z,100380.77
2018-12-16T05:07:23.213Z,100378.89
2018-12-16T05:09:50.515Z,100369.63
2018-12-16T05:12:18.222Z,100364.75
2018-12-16T05:14:46.003Z,100373.53
2018-12-16T05:17:13.530Z,100376.68
2018-12-16T05:19:41.219Z,100374.16
2018-12-16T05:22:08.762Z,100378.81
2018-12-16T05:24:36.504Z,100378.91
2018-12-16T05:27:04.036Z,100365.87
2018-12-16T05:29:31.635Z,100359.16
2018-12-16T05:31:59.162Z,100359.45
2018-12-16T05:34:26.766Z,100357.30
2018-12-16T05:36:54.507Z,100354.28
2018-12-16T05:39:22.180Z,100345.66
2018-12-16T05:41:49.718Z,100344.88
2018-12-16T05:44:17.539Z,100352.64
2018-12-16T05:46:45.264Z,100347.45
2018-12-16T05:49:13.024Z,100344.58
2018-12-16T05:51:40.450Z,100342.72
2018-12-16T05:54:08.041Z,100333.31
2018-12-16T05:56:35.598Z,100340.69
2018-12-16T05:59:03.288Z,100339.65
2018-12-16T06:01:30.734Z,100356.21
2018-12-16T06:03:58.172Z,100354.31
2018-12-16T06:06:26.204Z,100346.39
2018-12-16T06:08:53.876Z,100359.27
2018-12-16T06:11:21.586Z,100347.41
2018-12-16T06:13:49.276Z,100349.71
2018-12-16T06:16:16.812Z,100355.52
2018-12-16T06:18:44.266Z,100346.22
2018-12-16T06:21:12.138Z,100350.95
2018-12-16T06:23:39.798Z,100359.45
2018-12-16T06:26:07.469Z,100360.02
2018-12-16T06:28:35.464Z,100356.95
2018-12-16T06:31:03.097Z,100355.23
2018-12-16T06:33:30.678Z,100368.47
2018-12-16T06:35:58.004Z,100376.09
2018-12-16T06:38:25.480Z,100374.55
2018-12-16T06:40:53.048Z,100376.10
2018-12-16T06:43:20.410Z,100370.83
2018-12-16T06:45:47.824Z,100365.53
2018-12-16T06:48:15.187Z,100353.77
2018-12-16T06:50:42.568Z,100354.44
2018-12-16T06:53:10.244Z,100362.56
2018-12-16T06:55:43.290Z,100359.06
2018-12-16T06:58:07.481Z,100357.55
2018-12-16T07:00:35.121Z,100360.91
2018-12-16T07:03:02.608Z,100363.68
2018-12-16T07:05:30.008Z,100361.05
2018-12-16T07:07:57.472Z,100352.81
2018-12-16T07:10:25.116Z,100348.44
2018-12-16T07:12:52.756Z,100354.39
2018-12-16T07:15:20.126Z,100369.80
2018-12-16T07:17:47.788Z,100369.23
2018-12-16T07:20:15.379Z,100371.73
2018-12-16T07:22:42.761Z,100369.87
2018-12-16T07:25:11.703Z,100368.01
2018-12-16T07:27:39.772Z,100371.16
2018-12-16T07:30:08.092Z,100356.03
2018-12-16T07:32:35.740Z,100353.92
2018-12-16T07:35:03.409Z,100351.52
2018-12-16T07:37:30.991Z,100346.84
2018-12-16T07:39:58.851Z,100352.87
2018-12-16T07:42:26.435Z,100355.30
2018-12-16T07:44:53.989Z,100353.88
2018-12-16T07:47:21.604Z,100348.66
2018-12-16T07:49:49.175Z,100349.27
2018-12-16T07:52:16.850Z,100357.15
2018-12-16T07:54:44.327Z,100370.61
2018-12-16T07:57:11.957Z,100372.34
2018-12-16T07:59:39.638Z,100376.56
2018-12-16T08:02:07.300Z,100384.16
2018-12-16T08:04:34.903Z,100382.42
2018-12-16T08:07:02.406Z,100394.62
2018-12-16T08:09:30.015Z,100389.71
2018-12-16T08:11:57.467Z,100392.19
2018-12-16T08:14:25.151Z,100395.39
2018-12-16T08:16:52.838Z,100394.66
2018-12-16T08:19:20.679Z,100392.02
2018-12-16T08:21:48.404Z,100396.30
2018-12-16T08:24:22.957Z,100389.41
2018-12-16T08:26:45.692Z,100385.34
2018-12-16T08:29:13.362Z,100389.36
2018-12-16T08:31:41.084Z,100390.48
2018-12-16T08:34:08.828Z,100383.58
2018-12-16T08:36:36.404Z,100385.80
2018-12-16T08:39:06.397Z,100395.02
2018-12-16T08:41:34.015Z,100398.82
2018-12-16T08:44:01.779Z,100394.55
2018-12-16T08:46:29.421Z,100398.49
2018-12-16T08:48:56.817Z,100401.56
2018-12-16T08:51:24.509Z,100403.96
2018-12-16T08:53:52.033Z,100405.67
2018-12-16T08:56:19.803Z,100399.80
2018-12-16T08:58:47.447Z,100410.95
2018-12-16T09:01:14.977Z,100407.75
2018-12-16T09:03:43.005Z,100415.12
2018-12-16T09:06:10.651Z,100420.67
2018-12-16T09:08:38.461Z,100417.43
2018-12-16T09:11:06.039Z,100419.22
2018-12-16T09:13:33.811Z,100424.86
2018-12-16T09:16:01.352Z,100425.41
2018-12-16T09:18:29.079Z,100422.05
2018-12-16T09:20:56.469Z,100417.11
2018-12-16T09:23:24.027Z,100418.30
2018-12-16T09:25:51.696Z,100427.30
2018-12-16T09:28:19.394Z,100436.38
2018-12-16T09:30:46.745Z,100424.32
2018-12-16T09:33:14.431Z,100424.94
2018-12-16T09:35:41.829Z,100422.28
2018-12-16T09:38:09.553Z,100419.53
2018-12-16T09:40:37.138Z,100421.69
2018-12-16T09:43:04.767Z,100425.08
2018-12-16T09:45:32.485Z,100432.66
2018-12-16T09:48:00.615Z,100431.61
2018-12-16T09:50:28.344Z,100437.80
2018-12-16T09:52:55.945Z,100435.80
2018-12-16T09:55:23.591Z,100444.64
2018-12-16T09:57:51.133Z,100438.64
2018-12-16T10:00:18.836Z,100430.96
2018-12-16T10:02:46.439Z,100432.97
2018-12-16T10:05:14.187Z,100430.22
2018-12-16T10:07:41.753Z,100436.59
2018-12-16T10:10:10.840Z,100428.97
2018-12-16T10:12:38.523Z,100422.12
2018-12-16T10:15:06.938Z,100408.05
2018-12-16T10:17:34.281Z,100410.52
2018-12-16T10:20:02.098Z,100407.95
2018-12-16T10:22:29.578Z,100406.91
2018-12-16T10:24:57.248Z,100400.66
2018-12-16T10:27:24.803Z,100394.05
2018-12-16T10:29:52.399Z,100389.47
2018-12-16T10:32:20.170Z,100384.88
2018-12-16T10:34:47.755Z,100380.73
2018-12-16T10:37:15.385Z,100373.30
2018-12-16T10:39:43.563Z,100378.27
2018-12-16T10:42:11.224Z,100384.91
2018-12-16T10:44:38.895Z,100383.61
2018-12-16T10:47:06.459Z,100378.78
2018-12-16T10:49:34.114Z,100374.35
2018-12-16T10:52:01.875Z,100376.17
2018-12-16T10:54:29.744Z,100370.70
2018-12-16T10:56:57.511Z,100375.16
2018-12-16T10:59:24.868Z,100384.97
2018-12-16T11:01:52.595Z,100379.77
2018-12-16T11:04:20.083Z,100374.56
2018-12-16T11:06:47.800Z,100369.66
2018-12-16T11:09:15.797Z,100372.44
2018-12-16T11:11:44.125Z,100374.30
2018-12-16T11:14:11.782Z,100359.73
2018-12-16T11:16:39.712Z,100355.94
2018-12-16T11:19:07.360Z,100361.54
2018-12-16T11:21:35.055Z,100352.42
2018-12-16T11:24:02.880Z,100363.75
2018-12-16T11:26:30.552Z,100369.02
2018-12-16T11:28:58.304Z,100363.82
2018-12-16T11:31:26.049Z,100356.11
2018-12-16T11:33:53.758Z,100361.84
2018-12-16T11:36:21.404Z,100374.47
2018-12-16T11:38:49.298Z,100370.87
2018-12-16T11:41:17.064Z,100369.17
2018-12-16T11:43:45.547Z,100362.69
2018-12-16T11:46:13.020Z,100363.73
2018-12-16T11:48:40.686Z,100364.49
2018-12-16T11:51:08.454Z,100364.58
2018-12-16T11:53:36.087Z,100361.30
2018-12-16T11:56:03.642Z,100359.39
2018-12-16T11:58:31.319Z,100358.84
2018-12-16T12:00:58.920Z,100356.49
2018-12-16T12:03:26.589Z,100355.20
2018-12-16T12:05:53.938Z,100352.13
2018-12-16T12:08:21.573Z,100349.05
2018-12-16T12:10:49.255Z,100358.30
2018-12-16T12:13:16.848Z,100362.20
2018-12-16T12:15:44.433Z,100366.97
2018-12-16T12:18:12.156Z,100371.08
2018-12-16T12:20:39.544Z,100365.12
2018-12-16T12:23:07.354Z,100361.89
2018-12-16T12:25:34.929Z,100362.30
2018-12-16T12:28:02.376Z,100363.31
2018-12-16T12:30:29.973Z,100356.55
2018-12-16T12:32:57.353Z,100347.85
2018-12-16T12:35:25.122Z,100353.03
2018-12-16T12:37:52.795Z,100358.63
2018-12-16T12:40:20.369Z,100359.99
2018-12-16T12:42:48.057Z,100358.02
2018-12-16T12:45:15.691Z,100351.81
2018-12-16T12:47:43.305Z,100344.55
2018-12-16T12:50:10.887Z,100348.92
2018-12-16T12:52:38.537Z,100358.09
2018-12-16T12:55:06.549Z,100356.72
2018-12-16T12:57:34.144Z,100357.73
2018-12-16T13:00:01.989Z,100349.98
2018-12-16T13:02:29.697Z,100353.05
2018-12-16T13:04:57.233Z,100353.33
2018-12-16T13:07:25.151Z,100354.81
2018-12-16T13:09:52.513Z,100349.31
2018-12-16T13:12:20.148Z,100349.08
2018-12-16T13:14:47.621Z,100365.44
2018-12-16T13:17:15.215Z,100362.09
2018-12-16T13:19:42.965Z,100358.41
2018-12-16T13:22:10.693Z,100364.05
2018-12-16T13:24:49.121Z,100355.94
2018-12-16T13:27:16.964Z,100363.73
2018-12-16T13:29:44.807Z,100351.42
2018-12-16T13:32:12.439Z,100342.95
2018-12-16T13:34:40.151Z,100349.22
2018-12-16T13:37:07.937Z,100349.16
2018-12-16T13:39:36.143Z,100341.78
2018-12-16T13:42:03.970Z,100351.12
2018-12-16T13:44:31.802Z,100352.50
2018-12-16T13:46:59.847Z,100339.09
2018-12-16T13:49:28.061Z,100345.20
2018-12-16T13:51:55.665Z,100349.71
2018-12-16T13:54:40.095Z,100351.36
2018-12-16T13:57:07.794Z,100349.30
2018-12-16T13:59:35.422Z,100363.13
2018-12-16T14:02:02.825Z,100361.83
2018-12-16T14:04:30.426Z,100356.94
2018-12-16T14:06:57.922Z,100363.44
2018-12-16T14:09:25.610Z,100373.26
2018-12-16T14:11:53.191Z,100372.13
2018-12-16T14:14:20.839Z,100374.41
2018-12-16T14:16:48.446Z,100377.98
2018-12-16T14:19:16.118Z,100382.80
2018-12-16T14:21:43.884Z,100384.16
2018-12-16T14:24:11.511Z,100381.67
2018-12-16T14:26:39.558Z,100373.26
2018-12-16T14:29:07.115Z,100373.20
2018-12-16T14:31:34.721Z,100378.68
2018-12-16T14:34:02.481Z,100376.41
2018-12-16T14:36:30.156Z,100378.36
2018-12-16T14:38:57.881Z,100375.86
2018-12-16T14:41:25.485Z,100373.17
2018-12-16T14:43:53.214Z,100381.61
2018-12-16T14:46:20.741Z,100384.03
2018-12-16T14:48:48.131Z,100383.02
2018-12-16T14:51:15.843Z,100392.38
2018-12-16T14:53:43.317Z,100390.81
2018-12-16T14:56:10.998Z,100387.39
2018-12-16T14:58:38.642Z,100400.00
2018-12-16T15:01:06.377Z,100396.55
2018-12-16T15:03:33.970Z,100405.75
2018-12-16T15:06:01.283Z,100407.27
2018-12-16T15:08:29.004Z,100405.22
2018-12-16T15:10:56.787Z,100408.50
2018-12-16T15:13:24.572Z,100409.53
2018-12-16T15:15:52.345Z,100415.20
2018-12-16T15:18:19.989Z,100407.48
2018-12-16T15:20:47.426Z,100406.33
2018-12-16T15:23:15.159Z,100406.71
2018-12-16T15:25:42.721Z,100399.73
2018-12-16T15:28:10.421Z,100406.02
2018-12-16T15:30:37.847Z,100413.44
2018-12-16T15:33:05.529Z,100412.45
2018-12-16T15:35:32.889Z,100408.88
2018-12-16T15:38:00.564Z,100420.95
2018-12-16T15:40:28.505Z,100420.89
2018-12-16T15:42:56.186Z,100425.12
2018-12-16T15:45:23.989Z,100429.90
2018-12-16T15:47:51.576Z,100436.21
2018-12-16T15:50:19.382Z,100431.78
2018-12-16T15:52:46.987Z,100434.82
2018-12-16T15:55:14.562Z,100434.38
2018-12-16T15:57:42.121Z,100442.17
2018-12-16T16:00:10.279Z,100443.91
2018-12-16T16:02:38.050Z,100438.72
2018-12-16T16:05:06.061Z,100441.81
2018-12-16T16:07:34.047Z,100433.95
2018-12-16T16:10:01.833Z,100434.59
2018-12-16T16:12:29.253Z,100434.64
2018-12-16T16:14:56.946Z,100443.50
2018-12-16T16:17:24.321Z,100444.34
2018-12-16T16:19:51.991Z,100451.23
2018-12-16T16:22:20.581Z,100447.69
2018-12-16T16:24:48.402Z,100455.88
2018-12-16T16:27:16.045Z,100449.10
2018-12-16T16:29:43.810Z,100462.37
2018-12-16T16:32:11.445Z,100467.24
2018-12-16T16:34:39.229Z,100468.69
2018-12-16T16:37:06.991Z,100468.37
2018-12-16T16:39:34.723Z,100471.41
2018-12-16T16:42:02.307Z,100478.29
2018-12-16T16:44:29.964Z,100481.74
2018-12-16T16:46:57.602Z,100480.77
2018-12-16T16:49:25.261Z,100478.72
2018-12-16T16:51:52.866Z,100486.63
2018-12-16T16:54:20.707Z,100487.05
2018-12-16T16:56:48.289Z,100484.28
2018-12-16T16:59:16.051Z,100490.84
2018-12-16T17:01:43.761Z,100490.95
2018-12-16T17:04:11.180Z,100486.61
2018-12-16T17:06:39.140Z,100491.22
2018-12-16T17:09:07.708Z,100483.75
2018-12-16T17:11:35.641Z,100488.03
2018-12-16T17:14:03.454Z,100488.47
2018-12-16T17:16:31.093Z,100488.03
2018-12-16T17:18:59.721Z,100491.07
2018-12-16T17:21:27.960Z,100493.61
2018-12-16T17:23:55.574Z,100497.83
2018-12-16T17:26:29.809Z,100497.06
2018-12-16T17:28:53.092Z,100495.61
2018-12-16T17:31:20.693Z,100494.48
2018-12-16T17:33:48.386Z,100493.39
2018-12-16T17:36:16.104Z,100492.00
2018-12-16T17:38:43.729Z,100492.81
2018-12-16T17:41:11.596Z,100498.28
2018-12-16T17:43:39.390Z,100490.75
2018-12-16T17:46:06.733Z,100487.23
2018-12-16T17:48:34.364Z,100498.11
2018-12-16T17:51:01.770Z,100502.39
2018-12-16T17:53:29.502Z,100497.41
2018-12-16T17:55:57.298Z,100503.05
2018-12-16T17:58:25.392Z,100497.84
2018-12-16T18:00:52.941Z,100500.39
2018-12-16T18:03:20.560Z,100502.98
2018-12-16T18:05:48.093Z,100502.45
2018-12-16T18:08:15.813Z,100507.12
2018-12-16T18:10:43.545Z,100507.12
2018-12-16T18:13:11.173Z,100513.11
2018-12-16T18:15:38.839Z,100507.12
2018-12-16T18:18:06.428Z,100520.59
2018-12-16T18:20:33.916Z,100513.23
2018-12-16T18:23:01.612Z,100516.22
2018-12-16T18:25:29.351Z,100519.99
2018-12-16T18:27:56.736Z,100519.40
2018-12-16T18:30:24.564Z,100513.22
2018-12-16T18:32:52.168Z,100513.60
2018-12-16T18:35:19.990Z,100513.98
2018-12-16T18:37:48.037Z,100513.45
2018-12-16T18:40:15.638Z,100517.83
2018-12-16T18:42:43.398Z,100516.43
2018-12-16T18:45:11.252Z,100519.14
2018-12-16T18:47:38.896Z,100524.28
2018-12-16T18:50:08.359Z,100532.25
2018-12-16T18:52:35.992Z,100538.58
2018-12-16T18:55:04.168Z,100539.33
2018-12-16T18:57:32.355Z,100542.53
2018-12-16T19:00:00.097Z,100535.70
2018-12-16T19:02:27.771Z,100541.73
2018-12-16T19:04:55.404Z,100542.14
2018-12-16T19:07:23.222Z,100535.64
2018-12-16T19:09:50.833Z,100543.35
2018-12-16T19:12:18.520Z,100549.73
2018-12-16T19:14:46.437Z,100550.61
2018-12-16T19:17:14.101Z,100544.75
2018-12-16T19:19:42.061Z,100546.94
2018-12-16T19:22:09.837Z,100548.75
2018-12-16T19:24:37.349Z,100543.23
2018-12-16T19:27:05.069Z,100545.03
2018-12-16T19:29:32.816Z,100543.73
2018-12-16T19:32:00.443Z,100545.89
2018-12-16T19:34:28.256Z,100548.34
2018-12-16T19:36:55.977Z,100544.70
2018-12-16T19:39:23.732Z,100548.92
2018-12-16T19:41:51.335Z,100544.55
2018-12-16T19:44:18.943Z,100547.25
2018-12-16T19:46:46.564Z,100545.67
2018-12-16T19:49:14.200Z,100546.27
2018-12-16T19:51:41.885Z,100555.26
2018-12-16T19:54:09.520Z,100564.16
2018-12-16T19:56:36.975Z,100555.06
2018-12-16T19:59:04.835Z,100561.18
2018-12-16T20:01:32.409Z,100557.22
2018-12-16T20:04:05.829Z,100559.28
2018-12-16T20:06:43.450Z,100556.13
2018-12-16T20:09:11.441Z,100560.15
2018-12-16T20:11:39.551Z,100559.11
2018-12-16T20:14:07.203Z,100562.70
2018-12-16T20:16:34.953Z,100566.16
2018-12-16T20:19:02.847Z,100567.36
2018-12-16T20:21:30.427Z,100569.04
2018-12-16T20:23:58.321Z,100569.04
2018-12-16T20:26:25.987Z,100571.27
2018-12-16T20:28:53.721Z,100576.08
2018-12-16T20:31:21.695Z,100581.66
2018-12-16T20:33:49.828Z,100585.34
2018-12-16T20:36:17.756Z,100587.72
2018-12-16T20:38:45.395Z,100588.96
2018-12-16T20:41:13.037Z,100588.11
2018-12-16T20:43:40.455Z,100586.04
2018-12-16T20:46:08.207Z,100589.02
2018-12-16T20:48:35.587Z,100594.02
2018-12-16T20:51:03.325Z,100595.58
2018-12-16T20:53:31.115Z,100592.66
2018-12-16T20:55:58.839Z,100589.13
2018-12-16T20:58:26.393Z,100592.56
2018-12-16T21:00:54.105Z,100587.77
2018-12-16T21:03:22.051Z,100590.50
2018-12-16T21:05:49.644Z,100586.21
2018-12-16T21:08:17.528Z,100592.56
2018-12-16T21:10:45.101Z,100588.60
2018-12-16T21:13:18.593Z,100591.20
2018-12-16T21:15:51.918Z,100591.46
2018-12-16T21:18:22.840Z,100591.58
2018-12-16T21:20:50.926Z,100593.95
2018-12-16T21:23:18.610Z,100589.08
2018-12-16T21:25:46.348Z,100592.06
2018-12-16T21:28:13.938Z,100594.05
2018-12-16T21:30:41.317Z,100590.16
2018-12-16T21:33:08.926Z,100594.55
2018-12-16T21:35:36.345Z,100595.23
2018-12-16T21:38:04.149Z,100597.84
2018-12-16T21:40:31.829Z,100596.92
2018-12-16T21:42:59.427Z,100605.88
2018-12-16T21:50:25.649Z,100608.53
2018-12-16T21:52:53.277Z,100615.86
2018-12-16T21:55:20.898Z,100616.28
2018-12-16T21:57:48.624Z,100619.11
2018-12-16T22:00:16.299Z,100613.58
2018-12-16T22:02:43.996Z,100613.14
2018-12-16T22:05:13.131Z,100613.84
2018-12-16T22:07:40.760Z,100610.27
2018-12-16T22:10:08.376Z,100612.87
2018-12-16T22:12:36.173Z,100611.56
2018-12-16T22:15:04.514Z,100612.60
2018-12-16T22:17:31.881Z,100617.05
2018-12-16T22:19:59.614Z,100627.83
2018-12-16T22:22:27.360Z,100627.56
2018-12-16T22:24:55.024Z,100630.33
2018-12-16T22:27:22.822Z,100634.02
2018-12-16T22:29:50.524Z,100629.91
2018-12-16T22:32:18.125Z,100629.78
2018-12-16T22:34:45.788Z,100634.45
2018-12-16T22:37:13.723Z,100636.52
2018-12-16T22:39:41.483Z,100637.37
2018-12-16T22:42:09.080Z,100639.98
2018-12-16T22:44:36.854Z,100641.13
2018-12-16T22:47:04.582Z,100641.55
2018-12-16T22:49:32.558Z,100649.20
2018-12-16T22:52:00.245Z,100646.38
2018-12-16T22:54:28.090Z,100649.84
2018-12-16T22:56:55.621Z,100644.16
2018-12-16T22:59:23.047Z,100648.98
2018-12-16T23:01:50.926Z,100649.45
2018-12-16T23:04:18.424Z,100645.55
2018-12-16T23:06:46.010Z,100644.25
2018-12-16T23:09:13.628Z,100645.73
2018-12-16T23:11:41.246Z,100639.23
2018-12-16T23:14:08.876Z,100642.53
2018-12-16T23:16:36.543Z,100641.94
2018-12-16T23:19:04.278Z,100645.34
2018-12-16T23:21:31.894Z,100638.51
2018-12-16T23:23:59.724Z,100634.13
2018-12-16T23:26:27.232Z,100635.37
2018-12-16T23:28:54.910Z,100635.37
2018-12-16T23:31:22.463Z,100642.20
2018-12-16T23:33:50.120Z,100647.73
2018-12-16T23:36:17.989Z,100647.19
2018-12-16T23:38:45.621Z,100642.74
2018-12-16T23:41:13.378Z,100641.83
2018-12-16T23:43:41.039Z,100643.54
2018-12-16T23:46:08.756Z,100640.08
2018-12-16T23:48:36.470Z,100645.22
2018-12-16T23:51:04.166Z,100641.77
2018-12-16T23:53:31.841Z,100634.48
2018-12-16T23:55:59.441Z,100643.06
2018-12-16T23:58:27.043Z,100643.77
